sensor_id;sensor_type;location;lat;lon;timestamp;P1;durP1;ratioP1;P2;durP2;ratioP2
21501;SDS011;27639;48.674;9.242;2022-11-25T00:00:07;17.38;;;11.73;;
21501;SDS011;27639;48.674;9.242;2022-11-25T00:02:32;20.42;;;12.50;;
21501;SDS011;27639;48.674;9.242;2022-11-25T00:04:58;17.15;;;11.82;;
21501;SDS011;27639;48.674;9.242;2022-11-25T00:07:24;16.70;;;11.07;;
21501;SDS011;27639;48.674;9.242;2022-11-25T00:09:49;17.60;;;11.57;;
21501;SDS011;27639;48.674;9.242;2022-11-25T00:12:15;17.02;;;10.82;;
21501;SDS011;27639;48.674;9.242;2022-11-25T00:14:40;19.52;;;10.88;;
21501;SDS011;27639;48.674;9.242;2022-11-25T00:17:06;14.50;;;9.65;;
21501;SDS011;27639;48.674;9.242;2022-11-25T00:19:31;15.23;;;8.75;;
21501;SDS011;27639;48.674;9.242;2022-11-25T00:21:57;16.13;;;9.82;;
21501;SDS011;27639;48.674;9.242;2022-11-25T00:24:23;14.77;;;9.38;;
21501;SDS011;27639;48.674;9.242;2022-11-25T00:26:48;17.02;;;10.90;;
21501;SDS011;27639;48.674;9.242;2022-11-25T00:29:14;17.60;;;10.80;;
21501;SDS011;27639;48.674;9.242;2022-11-25T00:31:39;15.63;;;10.68;;
21501;SDS011;27639;48.674;9.242;2022-11-25T00:34:05;16.80;;;10.80;;
21501;SDS011;27639;48.674;9.242;2022-11-25T00:36:34;14.73;;;10.27;;
21501;SDS011;27639;48.674;9.242;2022-11-25T00:39:03;16.23;;;10.90;;
21501;SDS011;27639;48.674;9.242;2022-11-25T00:41:36;17.08;;;10.95;;
21501;SDS011;27639;48.674;9.242;2022-11-25T00:44:21;18.13;;;11.25;;
21501;SDS011;27639;48.674;9.242;2022-11-25T00:47:08;17.30;;;10.50;;
21501;SDS011;27639;48.674;9.242;2022-11-25T00:49:36;17.27;;;10.88;;
21501;SDS011;27639;48.674;9.242;2022-11-25T00:52:03;16.20;;;11.27;;
21501;SDS011;27639;48.674;9.242;2022-11-25T00:54:29;15.18;;;9.70;;
21501;SDS011;27639;48.674;9.242;2022-11-25T00:56:56;15.38;;;9.73;;
21501;SDS011;27639;48.674;9.242;2022-11-25T00:59:22;14.73;;;9.25;;
21501;SDS011;27639;48.674;9.242;2022-11-25T01:01:47;14.93;;;9.32;;
21501;SDS011;27639;48.674;9.242;2022-11-25T01:04:13;13.45;;;8.48;;
21501;SDS011;27639;48.674;9.242;2022-11-25T01:06:40;12.95;;;8.75;;
21501;SDS011;27639;48.674;9.242;2022-11-25T01:09:05;15.25;;;9.40;;
21501;SDS011;27639;48.674;9.242;2022-11-25T01:11:32;15.40;;;9.10;;
21501;SDS011;27639;48.674;9.242;2022-11-25T01:13:58;18.33;;;8.55;;
21501;SDS011;27639;48.674;9.242;2022-11-25T01:16:24;16.63;;;10.05;;
21501;SDS011;27639;48.674;9.242;2022-11-25T01:18:50;14.88;;;9.25;;
21501;SDS011;27639;48.674;9.242;2022-11-25T01:21:18;15.15;;;9.13;;
21501;SDS011;27639;48.674;9.242;2022-11-25T01:23:46;14.95;;;8.90;;
21501;SDS011;27639;48.674;9.242;2022-11-25T01:26:13;15.18;;;9.80;;
21501;SDS011;27639;48.674;9.242;2022-11-25T01:28:41;19.17;;;10.98;;
21501;SDS011;27639;48.674;9.242;2022-11-25T01:31:10;18.35;;;10.68;;
21501;SDS011;27639;48.674;9.242;2022-11-25T01:33:38;18.60;;;11.02;;
21501;SDS011;27639;48.674;9.242;2022-11-25T01:36:05;15.48;;;10.65;;
21501;SDS011;27639;48.674;9.242;2022-11-25T01:38:35;14.70;;;9.60;;
21501;SDS011;27639;48.674;9.242;2022-11-25T01:41:02;19.45;;;11.73;;
21501;SDS011;27639;48.674;9.242;2022-11-25T01:43:28;17.35;;;10.48;;
21501;SDS011;27639;48.674;9.242;2022-11-25T01:45:56;18.73;;;10.95;;
21501;SDS011;27639;48.674;9.242;2022-11-25T01:51:57;17.15;;;10.52;;
21501;SDS011;27639;48.674;9.242;2022-11-25T01:54:05;18.98;;;10.02;;
21501;SDS011;27639;48.674;9.242;2022-11-25T01:56:36;17.02;;;11.13;;
21501;SDS011;27639;48.674;9.242;2022-11-25T01:59:10;18.73;;;10.13;;
21501;SDS011;27639;48.674;9.242;2022-11-25T02:01:37;14.05;;;9.40;;
21501;SDS011;27639;48.674;9.242;2022-11-25T02:04:03;16.05;;;9.48;;
21501;SDS011;27639;48.674;9.242;2022-11-25T02:06:33;16.95;;;9.85;;
21501;SDS011;27639;48.674;9.242;2022-11-25T02:09:05;16.08;;;8.95;;
21501;SDS011;27639;48.674;9.242;2022-11-25T02:11:32;15.15;;;9.15;;
21501;SDS011;27639;48.674;9.242;2022-11-25T02:14:02;15.07;;;9.15;;
21501;SDS011;27639;48.674;9.242;2022-11-25T02:16:28;15.27;;;8.05;;
21501;SDS011;27639;48.674;9.242;2022-11-25T02:18:54;12.73;;;7.70;;
21501;SDS011;27639;48.674;9.242;2022-11-25T02:21:22;12.18;;;8.07;;
21501;SDS011;27639;48.674;9.242;2022-11-25T02:23:55;14.52;;;8.15;;
21501;SDS011;27639;48.674;9.242;2022-11-25T02:26:28;13.23;;;8.07;;
21501;SDS011;27639;48.674;9.242;2022-11-25T02:28:54;13.65;;;7.45;;
21501;SDS011;27639;48.674;9.242;2022-11-25T02:31:21;14.30;;;8.98;;
21501;SDS011;27639;48.674;9.242;2022-11-25T02:33:48;12.50;;;8.98;;
21501;SDS011;27639;48.674;9.242;2022-11-25T02:36:14;14.68;;;8.00;;
21501;SDS011;27639;48.674;9.242;2022-11-25T02:38:47;13.98;;;8.55;;
21501;SDS011;27639;48.674;9.242;2022-11-25T02:41:24;12.82;;;8.25;;
21501;SDS011;27639;48.674;9.242;2022-11-25T02:43:54;14.00;;;8.35;;
21501;SDS011;27639;48.674;9.242;2022-11-25T02:46:21;12.93;;;8.13;;
21501;SDS011;27639;48.674;9.242;2022-11-25T02:48:49;11.73;;;8.25;;
21501;SDS011;27639;48.674;9.242;2022-11-25T02:51:17;12.30;;;8.40;;
21501;SDS011;27639;48.674;9.242;2022-11-25T02:53:44;12.63;;;7.97;;
21501;SDS011;27639;48.674;9.242;2022-11-25T02:56:10;12.88;;;8.20;;
21501;SDS011;27639;48.674;9.242;2022-11-25T02:58:37;10.68;;;7.70;;
21501;SDS011;27639;48.674;9.242;2022-11-25T03:01:03;13.43;;;8.20;;
21501;SDS011;27639;48.674;9.242;2022-11-25T03:03:29;12.02;;;7.75;;
21501;SDS011;27639;48.674;9.242;2022-11-25T03:05:54;11.57;;;7.95;;
21501;SDS011;27639;48.674;9.242;2022-11-25T03:08:20;15.00;;;8.02;;
21501;SDS011;27639;48.674;9.242;2022-11-25T03:10:46;12.02;;;8.00;;
21501;SDS011;27639;48.674;9.242;2022-11-25T03:13:11;14.13;;;8.00;;
21501;SDS011;27639;48.674;9.242;2022-11-25T03:15:37;15.05;;;9.15;;
21501;SDS011;27639;48.674;9.242;2022-11-25T03:18:03;12.05;;;7.90;;
21501;SDS011;27639;48.674;9.242;2022-11-25T03:20:29;13.40;;;8.68;;
21501;SDS011;27639;48.674;9.242;2022-11-25T03:22:55;12.13;;;8.02;;
21501;SDS011;27639;48.674;9.242;2022-11-25T03:25:20;13.68;;;8.50;;
21501;SDS011;27639;48.674;9.242;2022-11-25T03:27:46;12.13;;;7.95;;
21501;SDS011;27639;48.674;9.242;2022-11-25T03:30:16;13.57;;;8.00;;
21501;SDS011;27639;48.674;9.242;2022-11-25T03:32:44;11.38;;;7.78;;
21501;SDS011;27639;48.674;9.242;2022-11-25T03:35:09;12.48;;;8.35;;
21501;SDS011;27639;48.674;9.242;2022-11-25T03:37:36;15.13;;;9.02;;
21501;SDS011;27639;48.674;9.242;2022-11-25T03:40:02;16.00;;;10.00;;
21501;SDS011;27639;48.674;9.242;2022-11-25T03:42:29;13.05;;;9.30;;
21501;SDS011;27639;48.674;9.242;2022-11-25T03:44:55;14.57;;;9.57;;
21501;SDS011;27639;48.674;9.242;2022-11-25T03:47:20;15.25;;;9.02;;
21501;SDS011;27639;48.674;9.242;2022-11-25T03:49:46;14.40;;;9.15;;
21501;SDS011;27639;48.674;9.242;2022-11-25T03:52:12;13.43;;;8.82;;
21501;SDS011;27639;48.674;9.242;2022-11-25T03:54:38;15.73;;;9.52;;
21501;SDS011;27639;48.674;9.242;2022-11-25T03:57:03;13.48;;;8.77;;
21501;SDS011;27639;48.674;9.242;2022-11-25T03:59:29;13.05;;;9.00;;
21501;SDS011;27639;48.674;9.242;2022-11-25T04:01:55;15.40;;;9.18;;
21501;SDS011;27639;48.674;9.242;2022-11-25T04:04:20;15.95;;;9.00;;
21501;SDS011;27639;48.674;9.242;2022-11-25T04:06:46;12.23;;;7.80;;
21501;SDS011;27639;48.674;9.242;2022-11-25T04:09:11;16.70;;;9.10;;
21501;SDS011;27639;48.674;9.242;2022-11-25T04:11:37;13.98;;;8.50;;
21501;SDS011;27639;48.674;9.242;2022-11-25T04:14:21;10.70;;;8.25;;
21501;SDS011;27639;48.674;9.242;2022-11-25T04:16:46;14.88;;;8.75;;
21501;SDS011;27639;48.674;9.242;2022-11-25T04:19:12;14.18;;;9.35;;
21501;SDS011;27639;48.674;9.242;2022-11-25T04:21:38;11.25;;;8.27;;
21501;SDS011;27639;48.674;9.242;2022-11-25T04:24:04;14.82;;;8.70;;
21501;SDS011;27639;48.674;9.242;2022-11-25T04:26:29;14.98;;;8.68;;
21501;SDS011;27639;48.674;9.242;2022-11-25T04:28:55;12.25;;;7.97;;
21501;SDS011;27639;48.674;9.242;2022-11-25T04:31:20;15.45;;;8.50;;
21501;SDS011;27639;48.674;9.242;2022-11-25T04:33:46;16.98;;;9.30;;
21501;SDS011;27639;48.674;9.242;2022-11-25T04:36:12;13.02;;;9.65;;
21501;SDS011;27639;48.674;9.242;2022-11-25T04:38:37;11.73;;;8.23;;
21501;SDS011;27639;48.674;9.242;2022-11-25T04:41:03;14.25;;;9.38;;
21501;SDS011;27639;48.674;9.242;2022-11-25T04:43:29;13.80;;;8.95;;
21501;SDS011;27639;48.674;9.242;2022-11-25T04:45:55;12.30;;;8.43;;
21501;SDS011;27639;48.674;9.242;2022-11-25T04:48:21;12.88;;;8.65;;
21501;SDS011;27639;48.674;9.242;2022-11-25T04:50:48;14.18;;;8.63;;
21501;SDS011;27639;48.674;9.242;2022-11-25T04:53:13;13.75;;;7.65;;
21501;SDS011;27639;48.674;9.242;2022-11-25T04:55:39;12.35;;;8.52;;
21501;SDS011;27639;48.674;9.242;2022-11-25T04:58:05;16.55;;;8.00;;
21501;SDS011;27639;48.674;9.242;2022-11-25T05:00:30;11.95;;;8.68;;
21501;SDS011;27639;48.674;9.242;2022-11-25T05:02:56;14.48;;;8.88;;
21501;SDS011;27639;48.674;9.242;2022-11-25T05:05:22;10.45;;;7.47;;
21501;SDS011;27639;48.674;9.242;2022-11-25T05:07:48;12.38;;;7.57;;
21501;SDS011;27639;48.674;9.242;2022-11-25T05:10:13;12.88;;;7.43;;
21501;SDS011;27639;48.674;9.242;2022-11-25T05:12:39;12.93;;;8.07;;
21501;SDS011;27639;48.674;9.242;2022-11-25T05:15:05;13.93;;;8.85;;
21501;SDS011;27639;48.674;9.242;2022-11-25T05:17:32;15.80;;;8.55;;
21501;SDS011;27639;48.674;9.242;2022-11-25T05:19:57;12.68;;;7.82;;
21501;SDS011;27639;48.674;9.242;2022-11-25T05:22:24;11.77;;;8.13;;
21501;SDS011;27639;48.674;9.242;2022-11-25T05:24:52;12.65;;;8.57;;
21501;SDS011;27639;48.674;9.242;2022-11-25T05:27:18;11.07;;;8.52;;
21501;SDS011;27639;48.674;9.242;2022-11-25T05:29:44;12.68;;;8.25;;
21501;SDS011;27639;48.674;9.242;2022-11-25T05:32:10;15.40;;;8.30;;
21501;SDS011;27639;48.674;9.242;2022-11-25T05:34:36;14.18;;;7.53;;
21501;SDS011;27639;48.674;9.242;2022-11-25T05:37:02;11.68;;;7.90;;
21501;SDS011;27639;48.674;9.242;2022-11-25T05:39:28;12.90;;;7.78;;
21501;SDS011;27639;48.674;9.242;2022-11-25T05:41:54;14.15;;;7.78;;
21501;SDS011;27639;48.674;9.242;2022-11-25T05:44:20;14.43;;;7.63;;
21501;SDS011;27639;48.674;9.242;2022-11-25T05:46:46;11.02;;;8.50;;
21501;SDS011;27639;48.674;9.242;2022-11-25T05:49:13;12.95;;;8.02;;
21501;SDS011;27639;48.674;9.242;2022-11-25T05:51:39;12.77;;;8.10;;
21501;SDS011;27639;48.674;9.242;2022-11-25T05:54:05;13.52;;;8.27;;
21501;SDS011;27639;48.674;9.242;2022-11-25T05:56:31;11.20;;;7.60;;
21501;SDS011;27639;48.674;9.242;2022-11-25T05:59:00;10.88;;;7.75;;
21501;SDS011;27639;48.674;9.242;2022-11-25T06:01:26;10.30;;;7.20;;
21501;SDS011;27639;48.674;9.242;2022-11-25T06:03:52;10.52;;;7.30;;
21501;SDS011;27639;48.674;9.242;2022-11-25T06:06:18;11.65;;;7.38;;
21501;SDS011;27639;48.674;9.242;2022-11-25T06:08:44;12.13;;;7.18;;
21501;SDS011;27639;48.674;9.242;2022-11-25T06:11:10;11.80;;;7.40;;
21501;SDS011;27639;48.674;9.242;2022-11-25T06:13:39;11.27;;;7.70;;
21501;SDS011;27639;48.674;9.242;2022-11-25T06:16:07;11.55;;;8.00;;
21501;SDS011;27639;48.674;9.242;2022-11-25T06:18:40;11.50;;;7.95;;
21501;SDS011;27639;48.674;9.242;2022-11-25T06:21:05;10.45;;;7.53;;
21501;SDS011;27639;48.674;9.242;2022-11-25T06:23:32;13.27;;;7.85;;
21501;SDS011;27639;48.674;9.242;2022-11-25T06:26:32;12.10;;;8.23;;
21501;SDS011;27639;48.674;9.242;2022-11-25T06:28:51;12.32;;;8.52;;
21501;SDS011;27639;48.674;9.242;2022-11-25T06:31:19;11.80;;;8.27;;
21501;SDS011;27639;48.674;9.242;2022-11-25T06:33:46;11.43;;;8.50;;
21501;SDS011;27639;48.674;9.242;2022-11-25T06:36:13;12.50;;;8.50;;
21501;SDS011;27639;48.674;9.242;2022-11-25T06:38:44;11.32;;;8.13;;
21501;SDS011;27639;48.674;9.242;2022-11-25T06:41:11;11.20;;;8.38;;
21501;SDS011;27639;48.674;9.242;2022-11-25T06:43:38;13.10;;;8.65;;
21501;SDS011;27639;48.674;9.242;2022-11-25T06:46:07;12.60;;;8.68;;
21501;SDS011;27639;48.674;9.242;2022-11-25T06:48:35;11.13;;;8.90;;
21501;SDS011;27639;48.674;9.242;2022-11-25T06:51:02;14.48;;;10.63;;
21501;SDS011;27639;48.674;9.242;2022-11-25T06:53:30;15.25;;;11.48;;
21501;SDS011;27639;48.674;9.242;2022-11-25T06:58:28;21.45;;;15.82;;
21501;SDS011;27639;48.674;9.242;2022-11-25T07:01:03;20.98;;;12.75;;
21501;SDS011;27639;48.674;9.242;2022-11-25T07:03:31;14.77;;;10.35;;
21501;SDS011;27639;48.674;9.242;2022-11-25T07:05:57;16.35;;;10.00;;
21501;SDS011;27639;48.674;9.242;2022-11-25T07:08:23;15.45;;;10.40;;
21501;SDS011;27639;48.674;9.242;2022-11-25T07:10:50;16.30;;;10.52;;
21501;SDS011;27639;48.674;9.242;2022-11-25T07:13:16;15.68;;;10.10;;
21501;SDS011;27639;48.674;9.242;2022-11-25T07:15:41;15.15;;;10.10;;
21501;SDS011;27639;48.674;9.242;2022-11-25T07:18:07;17.58;;;10.25;;
21501;SDS011;27639;48.674;9.242;2022-11-25T07:20:32;19.90;;;10.88;;
21501;SDS011;27639;48.674;9.242;2022-11-25T07:22:58;15.30;;;10.63;;
21501;SDS011;27639;48.674;9.242;2022-11-25T07:25:24;16.75;;;10.80;;
21501;SDS011;27639;48.674;9.242;2022-11-25T07:27:49;16.20;;;11.15;;
21501;SDS011;27639;48.674;9.242;2022-11-25T07:30:15;18.48;;;11.20;;
21501;SDS011;27639;48.674;9.242;2022-11-25T07:32:41;18.42;;;12.00;;
21501;SDS011;27639;48.674;9.242;2022-11-25T07:35:06;18.23;;;12.15;;
21501;SDS011;27639;48.674;9.242;2022-11-25T07:37:32;22.00;;;13.02;;
21501;SDS011;27639;48.674;9.242;2022-11-25T07:39:57;16.90;;;11.18;;
21501;SDS011;27639;48.674;9.242;2022-11-25T07:42:23;15.40;;;10.73;;
21501;SDS011;27639;48.674;9.242;2022-11-25T07:44:48;16.35;;;9.02;;
21501;SDS011;27639;48.674;9.242;2022-11-25T07:47:14;14.30;;;8.90;;
21501;SDS011;27639;48.674;9.242;2022-11-25T07:49:40;15.02;;;8.68;;
21501;SDS011;27639;48.674;9.242;2022-11-25T07:52:05;14.73;;;8.70;;
21501;SDS011;27639;48.674;9.242;2022-11-25T07:54:31;12.48;;;8.13;;
21501;SDS011;27639;48.674;9.242;2022-11-25T07:56:57;13.40;;;8.30;;
21501;SDS011;27639;48.674;9.242;2022-11-25T07:59:23;12.93;;;8.02;;
21501;SDS011;27639;48.674;9.242;2022-11-25T08:01:52;15.73;;;12.35;;
21501;SDS011;27639;48.674;9.242;2022-11-25T08:04:19;18.15;;;15.38;;
21501;SDS011;27639;48.674;9.242;2022-11-25T08:06:45;17.70;;;14.18;;
21501;SDS011;27639;48.674;9.242;2022-11-25T08:09:14;17.40;;;12.02;;
21501;SDS011;27639;48.674;9.242;2022-11-25T08:11:43;13.88;;;9.48;;
21501;SDS011;27639;48.674;9.242;2022-11-25T08:14:09;14.23;;;9.48;;
21501;SDS011;27639;48.674;9.242;2022-11-25T08:16:35;13.18;;;9.95;;
21501;SDS011;27639;48.674;9.242;2022-11-25T08:19:02;17.00;;;10.98;;
21501;SDS011;27639;48.674;9.242;2022-11-25T08:21:29;17.65;;;11.63;;
21501;SDS011;27639;48.674;9.242;2022-11-25T08:23:55;14.77;;;10.25;;
21501;SDS011;27639;48.674;9.242;2022-11-25T08:26:22;15.85;;;10.95;;
21501;SDS011;27639;48.674;9.242;2022-11-25T08:28:54;18.75;;;11.65;;
21501;SDS011;27639;48.674;9.242;2022-11-25T08:31:25;17.90;;;11.13;;
21501;SDS011;27639;48.674;9.242;2022-11-25T08:33:53;15.30;;;10.07;;
21501;SDS011;27639;48.674;9.242;2022-11-25T08:36:19;15.40;;;11.65;;
21501;SDS011;27639;48.674;9.242;2022-11-25T08:38:46;19.27;;;11.00;;
21501;SDS011;27639;48.674;9.242;2022-11-25T08:41:14;18.15;;;11.43;;
21501;SDS011;27639;48.674;9.242;2022-11-25T08:43:43;16.88;;;10.48;;
21501;SDS011;27639;48.674;9.242;2022-11-25T08:46:09;18.38;;;11.00;;
21501;SDS011;27639;48.674;9.242;2022-11-25T08:48:40;17.27;;;12.05;;
21501;SDS011;27639;48.674;9.242;2022-11-25T08:51:08;17.70;;;11.45;;
21501;SDS011;27639;48.674;9.242;2022-11-25T08:53:36;18.83;;;15.07;;
21501;SDS011;27639;48.674;9.242;2022-11-25T08:56:03;19.75;;;13.05;;
21501;SDS011;27639;48.674;9.242;2022-11-25T08:58:30;15.73;;;9.80;;
21501;SDS011;27639;48.674;9.242;2022-11-25T09:00:55;15.95;;;9.05;;
21501;SDS011;27639;48.674;9.242;2022-11-25T09:03:21;12.27;;;8.98;;
21501;SDS011;27639;48.674;9.242;2022-11-25T09:05:46;16.02;;;10.73;;
21501;SDS011;27639;48.674;9.242;2022-11-25T09:08:13;17.05;;;10.02;;
21501;SDS011;27639;48.674;9.242;2022-11-25T09:10:38;15.63;;;9.18;;
21501;SDS011;27639;48.674;9.242;2022-11-25T09:13:05;14.38;;;8.93;;
21501;SDS011;27639;48.674;9.242;2022-11-25T09:15:30;11.98;;;8.20;;
21501;SDS011;27639;48.674;9.242;2022-11-25T09:18:00;13.90;;;9.43;;
21501;SDS011;27639;48.674;9.242;2022-11-25T09:20:31;16.58;;;9.00;;
21501;SDS011;27639;48.674;9.242;2022-11-25T09:22:57;14.27;;;10.38;;
21501;SDS011;27639;48.674;9.242;2022-11-25T09:25:24;16.48;;;9.40;;
21501;SDS011;27639;48.674;9.242;2022-11-25T09:27:49;17.55;;;11.88;;
21501;SDS011;27639;48.674;9.242;2022-11-25T09:30:15;16.08;;;9.93;;
21501;SDS011;27639;48.674;9.242;2022-11-25T09:32:41;19.70;;;10.60;;
21501;SDS011;27639;48.674;9.242;2022-11-25T09:35:07;17.67;;;10.15;;
21501;SDS011;27639;48.674;9.242;2022-11-25T09:37:32;15.82;;;10.10;;
21501;SDS011;27639;48.674;9.242;2022-11-25T09:39:58;15.30;;;10.38;;
21501;SDS011;27639;48.674;9.242;2022-11-25T09:45:50;16.15;;;9.30;;
21501;SDS011;27639;48.674;9.242;2022-11-25T09:51:20;16.33;;;10.90;;
21501;SDS011;27639;48.674;9.242;2022-11-25T09:56:18;15.05;;;10.70;;
21501;SDS011;27639;48.674;9.242;2022-11-25T09:59:13;16.33;;;11.20;;
21501;SDS011;27639;48.674;9.242;2022-11-25T10:01:53;15.30;;;11.05;;
21501;SDS011;27639;48.674;9.242;2022-11-25T10:04:32;17.88;;;10.73;;
21501;SDS011;27639;48.674;9.242;2022-11-25T10:07:03;15.30;;;10.52;;
21501;SDS011;27639;48.674;9.242;2022-11-25T10:09:37;15.25;;;10.73;;
21501;SDS011;27639;48.674;9.242;2022-11-25T10:12:04;16.40;;;11.32;;
21501;SDS011;27639;48.674;9.242;2022-11-25T10:14:39;14.93;;;10.57;;
21501;SDS011;27639;48.674;9.242;2022-11-25T10:22:24;16.65;;;10.80;;
21501;SDS011;27639;48.674;9.242;2022-11-25T10:24:51;19.35;;;12.27;;
21501;SDS011;27639;48.674;9.242;2022-11-25T10:27:24;16.70;;;11.07;;
21501;SDS011;27639;48.674;9.242;2022-11-25T10:30:14;13.70;;;9.77;;
21501;SDS011;27639;48.674;9.242;2022-11-25T10:32:48;15.98;;;8.82;;
21501;SDS011;27639;48.674;9.242;2022-11-25T10:35:32;12.65;;;7.88;;
21501;SDS011;27639;48.674;9.242;2022-11-25T10:38:04;13.30;;;8.23;;
21501;SDS011;27639;48.674;9.242;2022-11-25T10:40:38;10.55;;;8.07;;
21501;SDS011;27639;48.674;9.242;2022-11-25T10:43:12;12.38;;;8.25;;
21501;SDS011;27639;48.674;9.242;2022-11-25T10:45:50;12.48;;;8.68;;
21501;SDS011;27639;48.674;9.242;2022-11-25T10:53:36;11.18;;;8.25;;
21501;SDS011;27639;48.674;9.242;2022-11-25T10:56:03;12.70;;;8.40;;
21501;SDS011;27639;48.674;9.242;2022-11-25T10:58:37;12.18;;;7.25;;
21501;SDS011;27639;48.674;9.242;2022-11-25T11:01:12;14.95;;;10.88;;
21501;SDS011;27639;48.674;9.242;2022-11-25T11:03:41;12.20;;;8.93;;
21501;SDS011;27639;48.674;9.242;2022-11-25T11:06:27;10.85;;;8.00;;
21501;SDS011;27639;48.674;9.242;2022-11-25T11:08:53;10.77;;;6.35;;
21501;SDS011;27639;48.674;9.242;2022-11-25T11:11:19;7.05;;;2.95;;
21501;SDS011;27639;48.674;9.242;2022-11-25T11:13:47;6.57;;;2.85;;
21501;SDS011;27639;48.674;9.242;2022-11-25T11:18:54;8.30;;;2.35;;
21501;SDS011;27639;48.674;9.242;2022-11-25T11:21:28;5.40;;;2.20;;
21501;SDS011;27639;48.674;9.242;2022-11-25T11:23:58;5.72;;;2.05;;
21501;SDS011;27639;48.674;9.242;2022-11-25T11:26:29;5.85;;;1.75;;
21501;SDS011;27639;48.674;9.242;2022-11-25T11:28:58;8.73;;;2.08;;
21501;SDS011;27639;48.674;9.242;2022-11-25T11:31:44;6.47;;;2.50;;
21501;SDS011;27639;48.674;9.242;2022-11-25T11:34:23;5.97;;;1.98;;
21501;SDS011;27639;48.674;9.242;2022-11-25T11:40:16;5.63;;;2.30;;
21501;SDS011;27639;48.674;9.242;2022-11-25T11:43:17;6.13;;;2.08;;
21501;SDS011;27639;48.674;9.242;2022-11-25T11:48:42;4.05;;;1.55;;
21501;SDS011;27639;48.674;9.242;2022-11-25T11:51:21;7.72;;;2.20;;
21501;SDS011;27639;48.674;9.242;2022-11-25T11:54:05;5.00;;;1.75;;
21501;SDS011;27639;48.674;9.242;2022-11-25T11:56:55;4.80;;;1.77;;
21501;SDS011;27639;48.674;9.242;2022-11-25T11:59:44;5.88;;;2.00;;
21501;SDS011;27639;48.674;9.242;2022-11-25T12:05:11;3.53;;;1.45;;
21501;SDS011;27639;48.674;9.242;2022-11-25T12:11:00;7.65;;;2.50;;
21501;SDS011;27639;48.674;9.242;2022-11-25T12:13:49;6.25;;;1.90;;
21501;SDS011;27639;48.674;9.242;2022-11-25T12:16:49;5.03;;;1.80;;
21501;SDS011;27639;48.674;9.242;2022-11-25T12:19:23;5.57;;;2.20;;
21501;SDS011;27639;48.674;9.242;2022-11-25T12:25:00;5.80;;;2.35;;
21501;SDS011;27639;48.674;9.242;2022-11-25T12:27:33;6.57;;;2.65;;
21501;SDS011;27639;48.674;9.242;2022-11-25T12:30:09;6.20;;;2.40;;
21501;SDS011;27639;48.674;9.242;2022-11-25T12:32:42;5.40;;;2.10;;
21501;SDS011;27639;48.674;9.242;2022-11-25T12:43:34;8.10;;;3.25;;
21501;SDS011;27639;48.674;9.242;2022-11-25T12:48:50;6.32;;;3.05;;
21501;SDS011;27639;48.674;9.242;2022-11-25T12:51:22;5.60;;;3.42;;
21501;SDS011;27639;48.674;9.242;2022-11-25T12:56:34;8.13;;;3.47;;
21501;SDS011;27639;48.674;9.242;2022-11-25T12:59:36;5.95;;;2.95;;
21501;SDS011;27639;48.674;9.242;2022-11-25T13:13:50;10.80;;;6.53;;
21501;SDS011;27639;48.674;9.242;2022-11-25T13:16:36;9.38;;;5.10;;
21501;SDS011;27639;48.674;9.242;2022-11-25T13:19:06;8.55;;;3.90;;
21501;SDS011;27639;48.674;9.242;2022-11-25T13:21:35;6.10;;;3.57;;
21501;SDS011;27639;48.674;9.242;2022-11-25T13:24:01;9.23;;;3.80;;
21501;SDS011;27639;48.674;9.242;2022-11-25T13:28:53;6.30;;;3.60;;
21501;SDS011;27639;48.674;9.242;2022-11-25T13:31:30;7.07;;;2.95;;
21501;SDS011;27639;48.674;9.242;2022-11-25T13:36:43;10.13;;;4.38;;
21501;SDS011;27639;48.674;9.242;2022-11-25T13:39:13;8.98;;;4.53;;
21501;SDS011;27639;48.674;9.242;2022-11-25T13:44:47;11.15;;;5.40;;
21501;SDS011;27639;48.674;9.242;2022-11-25T13:52:31;6.32;;;3.20;;
21501;SDS011;27639;48.674;9.242;2022-11-25T13:57:45;6.25;;;3.42;;
21501;SDS011;27639;48.674;9.242;2022-11-25T14:02:45;5.20;;;2.50;;
21501;SDS011;27639;48.674;9.242;2022-11-25T14:11:06;7.50;;;2.50;;
21501;SDS011;27639;48.674;9.242;2022-11-25T14:16:51;7.13;;;3.30;;
21501;SDS011;27639;48.674;9.242;2022-11-25T14:19:58;7.63;;;3.03;;
21501;SDS011;27639;48.674;9.242;2022-11-25T14:28:28;7.10;;;2.45;;
21501;SDS011;27639;48.674;9.242;2022-11-25T14:31:04;6.57;;;2.67;;
21501;SDS011;27639;48.674;9.242;2022-11-25T14:33:43;7.10;;;2.47;;
21501;SDS011;27639;48.674;9.242;2022-11-25T14:36:19;4.60;;;2.40;;
21501;SDS011;27639;48.674;9.242;2022-11-25T14:38:51;6.40;;;2.40;;
21501;SDS011;27639;48.674;9.242;2022-11-25T14:41:35;7.47;;;2.42;;
21501;SDS011;27639;48.674;9.242;2022-11-25T14:44:05;7.95;;;2.53;;
21501;SDS011;27639;48.674;9.242;2022-11-25T14:46:49;6.75;;;2.38;;
21501;SDS011;27639;48.674;9.242;2022-11-25T14:49:15;7.00;;;2.20;;
21501;SDS011;27639;48.674;9.242;2022-11-25T14:51:41;7.75;;;2.33;;
21501;SDS011;27639;48.674;9.242;2022-11-25T14:54:06;9.02;;;2.63;;
21501;SDS011;27639;48.674;9.242;2022-11-25T14:56:33;7.50;;;2.80;;
21501;SDS011;27639;48.674;9.242;2022-11-25T14:59:00;8.60;;;2.75;;
21501;SDS011;27639;48.674;9.242;2022-11-25T15:01:27;9.70;;;2.85;;
21501;SDS011;27639;48.674;9.242;2022-11-25T15:06:52;5.87;;;2.23;;
21501;SDS011;27639;48.674;9.242;2022-11-25T15:09:24;10.07;;;2.63;;
21501;SDS011;27639;48.674;9.242;2022-11-25T15:11:56;6.57;;;2.10;;
21501;SDS011;27639;48.674;9.242;2022-11-25T15:14:32;7.43;;;2.55;;
21501;SDS011;27639;48.674;9.242;2022-11-25T15:17:05;6.82;;;2.53;;
21501;SDS011;27639;48.674;9.242;2022-11-25T15:19:33;5.85;;;2.25;;
21501;SDS011;27639;48.674;9.242;2022-11-25T15:22:01;11.93;;;2.47;;
21501;SDS011;27639;48.674;9.242;2022-11-25T15:24:29;8.30;;;2.88;;
21501;SDS011;27639;48.674;9.242;2022-11-25T15:26:57;10.48;;;3.13;;
21501;SDS011;27639;48.674;9.242;2022-11-25T15:29:26;7.60;;;2.92;;
21501;SDS011;27639;48.674;9.242;2022-11-25T15:31:53;7.15;;;2.95;;
21501;SDS011;27639;48.674;9.242;2022-11-25T15:34:21;8.63;;;3.05;;
21501;SDS011;27639;48.674;9.242;2022-11-25T15:36:48;9.65;;;3.65;;
21501;SDS011;27639;48.674;9.242;2022-11-25T15:41:50;11.35;;;3.95;;
21501;SDS011;27639;48.674;9.242;2022-11-25T15:44:30;14.98;;;5.30;;
21501;SDS011;27639;48.674;9.242;2022-11-25T15:47:03;14.05;;;5.25;;
21501;SDS011;27639;48.674;9.242;2022-11-25T15:49:31;11.23;;;4.95;;
21501;SDS011;27639;48.674;9.242;2022-11-25T15:52:03;11.50;;;4.15;;
21501;SDS011;27639;48.674;9.242;2022-11-25T15:54:38;8.45;;;3.25;;
21501;SDS011;27639;48.674;9.242;2022-11-25T15:57:27;7.22;;;2.92;;
21501;SDS011;27639;48.674;9.242;2022-11-25T16:10:24;7.57;;;3.42;;
21501;SDS011;27639;48.674;9.242;2022-11-25T16:15:51;9.65;;;4.10;;
21501;SDS011;27639;48.674;9.242;2022-11-25T16:19:18;9.90;;;4.22;;
21501;SDS011;27639;48.674;9.242;2022-11-25T16:21:22;12.93;;;4.93;;
21501;SDS011;27639;48.674;9.242;2022-11-25T16:23:59;11.52;;;5.18;;
21501;SDS011;27639;48.674;9.242;2022-11-25T16:26:57;9.23;;;5.13;;
21501;SDS011;27639;48.674;9.242;2022-11-25T16:29:30;13.45;;;4.75;;
21501;SDS011;27639;48.674;9.242;2022-11-25T16:32:14;8.60;;;4.32;;
21501;SDS011;27639;48.674;9.242;2022-11-25T16:34:41;10.00;;;5.00;;
21501;SDS011;27639;48.674;9.242;2022-11-25T16:37:07;12.25;;;5.20;;
21501;SDS011;27639;48.674;9.242;2022-11-25T16:39:33;13.13;;;5.00;;
21501;SDS011;27639;48.674;9.242;2022-11-25T16:41:59;11.30;;;5.07;;
21501;SDS011;27639;48.674;9.242;2022-11-25T16:44:28;12.27;;;4.95;;
21501;SDS011;27639;48.674;9.242;2022-11-25T16:46:54;11.38;;;5.25;;